Terminal Aerodrome Forecast
Issued by NWS Tuscon, AZ

Home | Current Version | Previous Version | Text Only | Print | Product List | Glossary On
Versions: 1 2 3 4 5 6 7 8 9 10 11 12 13
000
FTUS45 KTWC 251720
TAFDUG
TAF
KDUG 251720Z 2518/2618 VRB05KT P6SM SKC
     FM251900 24012G19KT P6SM SKC
     FM260200 35007KT P6SM FEW100 SCT200
     FM261000 VRB04KT P6SM BKN200=

USA.gov is the U.S. government's official web portal to all federal, state and local government web resources and services.